Time;durP1;ratioP1;P1;durP2;ratioP2;P2;SDS_P1;SDS_P2;PMS_P1;PMS_P2;Temp;Humidity;BMP_temperature;BMP_pressure;BME280_temperature;BME280_humidity;BME280_pressure;Samples;Min_cycle;Max_cycle;Signal;HPM_P1;HPM_P2
2022/01/09 00:00:19;;;;;;;;;;;;;;;;;;5136265;27;20014;-72
2022/01/09 00:02:46;;;;;;;;;;;;;;;;;;5118488;27;19922;-71
2022/01/09 00:05:12;;;;;;;;;;;;;;;;;;5136952;27;20292;-71
2022/01/09 00:07:38;;;;;;;;;;;;;;;;;;5137018;27;19915;-71
2022/01/09 00:10:04;;;;;;;;;;;;;;;;;;5117812;27;19965;-71
2022/01/09 00:12:29;;;;;;;;;;;;;;;;;;5136533;27;19915;-71
2022/01/09 00:14:55;;;;;;;;;;;;;;;;;;5136987;27;20304;-71
2022/01/09 00:17:20;;;;;;;;;;;;;;;;;;5136553;27;19950;-71
2022/01/09 00:19:45;;;;;;;;;;;;;;;;;;5136666;27;19915;-71
2022/01/09 00:22:11;;;;;;;;;;;;;;;;;;5136830;27;19926;-71
2022/01/09 00:24:37;;;;;;;;;;;;;;;;;;5136712;27;19915;-71
2022/01/09 00:27:02;;;;;;;;;;;;;;;;;;5136492;27;20292;-71
2022/01/09 00:29:27;;;;;;;;;;;;;;;;;;5118033;27;19927;-71
2022/01/09 00:31:53;;;;;;;;;;;;;;;;;;5136558;27;19927;-71
2022/01/09 00:34:18;;;;;;;;;;;;;;;;;;5136223;27;19923;-71
2022/01/09 00:36:43;;;;;;;;;;;;;;;;;;5136379;27;20369;-71
2022/01/09 00:39:09;;;;;;;;;;;;;;;;;;5136671;27;19915;-71
2022/01/09 00:41:34;;;;;;;;;;;;;;;;;;5136060;27;19916;-71
2022/01/09 00:43:59;;;;;;;;;;;;;;;;;;5136373;27;19916;-72
2022/01/09 00:46:25;;;;;;;;;;;;;;;;;;5135841;27;20388;-71
2022/01/09 00:48:50;;;;;;;;;;;;;;;;;;5135989;27;19927;-71
2022/01/09 00:51:15;;;;;;;;;;;;;;;;;;5135835;27;19923;-71
2022/01/09 00:53:40;;;;;;;;;;;;;;;;;;5136112;27;19915;-71
2022/01/09 00:56:06;;;;;;;;;;;;;;;;;;5136017;27;19920;-71
2022/01/09 00:58:31;;;;;;;;;;;;;;;;;;5135917;27;19950;-71
2022/01/09 01:00:58;;;;;;;;;;;;;;;;;;5136088;27;20002;-71
2022/01/09 01:03:23;;;;;;;;;;;;;;;;;;5135083;27;19922;-71
2022/01/09 01:05:48;;;;;;;;;;;;;;;;;;5135607;27;19916;-71
2022/01/09 01:08:13;;;;;;;;;;;;;;;;;;5135771;27;20355;-72
2022/01/09 01:10:39;;;;;;;;;;;;;;;;;;5135634;27;19926;-71
2022/01/09 01:13:04;;;;;;;;;;;;;;;;;;5135994;27;19916;-72
2022/01/09 01:15:30;;;;;;;;;;;;;;;;;;5135495;27;20264;-71
2022/01/09 01:17:55;;;;;;;;;;;;;;;;;;5135622;27;19915;-71
2022/01/09 01:20:22;;;;;;;;;;;;;;;;;;5135619;27;19923;-71
2022/01/09 01:22:49;;;;;;;;;;;;;;;;;;5135274;27;20364;-71
2022/01/09 01:25:15;;;;;;;;;;;;;;;;;;5135364;27;19915;-71
2022/01/09 01:27:40;;;;;;;;;;;;;;;;;;5135489;27;20435;-72
2022/01/09 01:30:08;;;;;;;;;;;;;;;;;;5135262;27;19920;-71
2022/01/09 01:32:33;;;;;;;;;;;;;;;;;;5134506;27;20296;-71
2022/01/09 01:34:58;;;;;;;;;;;;;;;;;;5135221;27;19916;-72
2022/01/09 01:37:23;;;;;;;;;;;;;;;;;;5135118;27;19919;-72
2022/01/09 01:39:49;;;;;;;;;;;;;;;;;;5135231;27;19976;-72
2022/01/09 01:42:14;;;;;;;;;;;;;;;;;;5135165;27;20005;-72
2022/01/09 01:44:41;;;;;;;;;;;;;;;;;;5135107;27;19922;-71
2022/01/09 01:47:06;;;;;;;;;;;;;;;;;;5134698;27;19924;-71
2022/01/09 01:49:32;;;;;;;;;;;;;;;;;;5116729;27;19919;-72
2022/01/09 01:51:59;;;;;;;;;;;;;;;;;;5115908;27;22340;-71
2022/01/09 01:54:25;;;;;;;;;;;;;;;;;;5134689;27;19922;-71
2022/01/09 01:56:51;;;;;;;;;;;;;;;;;;5134123;27;19915;-71
2022/01/09 01:59:16;;;;;;;;;;;;;;;;;;5135258;27;20383;-72
2022/01/09 02:01:41;;;;;;;;;;;;;;;;;;5134888;27;20333;-71
2022/01/09 02:04:07;;;;;;;;;;;;;;;;;;5116011;27;19919;-71
2022/01/09 02:06:35;;;;;;;;;;;;;;;;;;5133752;27;19919;-71
2022/01/09 02:09:02;;;;;;;;;;;;;;;;;;5134410;27;20416;-72
2022/01/09 02:11:28;;;;;;;;;;;;;;;;;;5134857;27;19923;-72
2022/01/09 02:13:54;;;;;;;;;;;;;;;;;;5134566;28;19922;-71
2022/01/09 02:16:19;;;;;;;;;;;;;;;;;;5134517;28;19916;-71
2022/01/09 02:18:45;;;;;;;;;;;;;;;;;;5134843;27;20001;-72
2022/01/09 02:21:11;;;;;;;;;;;;;;;;;;5134540;28;19916;-71
2022/01/09 02:23:39;;;;;;;;;;;;;;;;;;5134756;28;20033;-72
2022/01/09 02:26:05;;;;;;;;;;;;;;;;;;5116420;28;20284;-72
2022/01/09 02:28:30;;;;;;;;;;;;;;;;;;5134419;27;19916;-71
2022/01/09 02:30:55;;;;;;;;;;;;;;;;;;5134753;28;19919;-72
2022/01/09 02:33:20;;;;;;;;;;;;;;;;;;5134724;27;20280;-72
2022/01/09 02:35:51;;;;;;;;;;;;;;;;;;5138866;27;20002;-72
2022/01/09 02:38:16;;;;;;;;;;;;;;;;;;5138815;27;19915;-72
2022/01/09 02:40:42;;;;;;;;;;;;;;;;;;5120306;27;19918;-71
2022/01/09 02:43:07;;;;;;;;;;;;;;;;;;5138863;27;20027;-71
2022/01/09 02:45:33;;;;;;;;;;;;;;;;;;5138483;27;19916;-71
2022/01/09 02:48:00;;;;;;;;;;;;;;;;;;5138262;27;20038;-71
2022/01/09 02:52:55;;;;;;;;;;;;;;;;;;5138368;27;19922;-71
2022/01/09 02:55:22;;;;;;;;;;;;;;;;;;5138415;27;20473;-71
2022/01/09 02:57:48;;;;;;;;;;;;;;;;;;5138353;27;19938;-71
2022/01/09 03:00:16;;;;;;;;;;;;;;;;;;5137830;27;19915;-71
2022/01/09 03:02:42;;;;;;;;;;;;;;;;;;5137991;27;19922;-71
2022/01/09 03:05:08;;;;;;;;;;;;;;;;;;5137488;27;19919;-71
2022/01/09 03:07:33;;;;;;;;;;;;;;;;;;5137912;27;19923;-71
2022/01/09 03:09:59;;;;;;;;;;;;;;;;;;5138219;27;19959;-71
2022/01/09 03:12:24;;;;;;;;;;;;;;;;;;5138158;27;19922;-71
2022/01/09 03:14:49;;;;;;;;;;;;;;;;;;5137958;27;19955;-71
2022/01/09 03:17:15;;;;;;;;;;;;;;;;;;5137979;27;20440;-71
2022/01/09 03:19:40;;;;;;;;;;;;;;;;;;5137582;27;19920;-71
2022/01/09 03:22:05;;;;;;;;;;;;;;;;;;5119580;27;20297;-71
2022/01/09 03:24:31;;;;;;;;;;;;;;;;;;5137707;27;19922;-71
2022/01/09 03:26:56;;;;;;;;;;;;;;;;;;5137829;27;19922;-71
2022/01/09 03:29:21;;;;;;;;;;;;;;;;;;5137411;27;19918;-71
2022/01/09 03:31:47;;;;;;;;;;;;;;;;;;5137732;27;20376;-71
2022/01/09 03:34:12;;;;;;;;;;;;;;;;;;5119154;27;19915;-71
2022/01/09 03:36:37;;;;;;;;;;;;;;;;;;5136758;27;19927;-71
2022/01/09 03:39:03;;;;;;;;;;;;;;;;;;5137755;27;19915;-71
2022/01/09 03:41:28;;;;;;;;;;;;;;;;;;5137399;27;19915;-71
2022/01/09 03:43:53;;;;;;;;;;;;;;;;;;5137452;27;19998;-71
2022/01/09 03:46:19;;;;;;;;;;;;;;;;;;5117570;27;19919;-71
2022/01/09 03:48:44;;;;;;;;;;;;;;;;;;5137310;27;19919;-71
2022/01/09 03:51:10;;;;;;;;;;;;;;;;;;5137316;27;20011;-71
2022/01/09 03:53:36;;;;;;;;;;;;;;;;;;5137003;27;20258;-71
2022/01/09 03:56:01;;;;;;;;;;;;;;;;;;5136885;27;19976;-71
2022/01/09 03:58:27;;;;;;;;;;;;;;;;;;5137018;27;19920;-71
2022/01/09 04:00:52;;;;;;;;;;;;;;;;;;5137217;27;19916;-71
2022/01/09 04:03:17;;;;;;;;;;;;;;;;;;5118563;27;19927;-71
2022/01/09 04:05:43;;;;;;;;;;;;;;;;;;5137218;27;19976;-71
2022/01/09 04:08:08;;;;;;;;;;;;;;;;;;5137119;27;20265;-71
2022/01/09 04:10:40;;;;;;;;;;;;;;;;;;5118248;27;19919;-71
2022/01/09 04:13:05;;;;;;;;;;;;;;;;;;5118726;27;19919;-71
2022/01/09 04:15:31;;;;;;;;;;;;;;;;;;5136876;27;19967;-71
2022/01/09 04:17:57;;;;;;;;;;;;;;;;;;5118452;27;20303;-71
2022/01/09 04:20:23;;;;;;;;;;;;;;;;;;5137131;27;19923;-71
2022/01/09 04:22:49;;;;;;;;;;;;;;;;;;5118472;27;20416;-71
2022/01/09 04:25:15;;;;;;;;;;;;;;;;;;5118354;27;19959;-71
2022/01/09 04:27:41;;;;;;;;;;;;;;;;;;5136562;27;19923;-71
2022/01/09 04:30:06;;;;;;;;;;;;;;;;;;5136617;27;20260;-71
2022/01/09 04:32:32;;;;;;;;;;;;;;;;;;5136626;27;19955;-71
2022/01/09 04:34:57;;;;;;;;;;;;;;;;;;5136578;27;19926;-71
2022/01/09 04:37:23;;;;;;;;;;;;;;;;;;5136341;27;19922;-71
2022/01/09 04:39:51;;;;;;;;;;;;;;;;;;5136232;27;19919;-71
2022/01/09 04:42:16;;;;;;;;;;;;;;;;;;5136176;27;19922;-71
2022/01/09 04:44:42;;;;;;;;;;;;;;;;;;5118035;27;19998;-71
2022/01/09 04:47:12;;;;;;;;;;;;;;;;;;5136060;27;20365;-72
2022/01/09 04:49:40;;;;;;;;;;;;;;;;;;5136383;27;19947;-71
2022/01/09 04:52:08;;;;;;;;;;;;;;;;;;5117691;27;20007;-71
2022/01/09 04:54:33;;;;;;;;;;;;;;;;;;5136097;27;19915;-71
2022/01/09 04:57:01;;;;;;;;;;;;;;;;;;5135349;27;20337;-71
2022/01/09 04:59:28;;;;;;;;;;;;;;;;;;5135904;27;19966;-71
2022/01/09 05:01:53;;;;;;;;;;;;;;;;;;5136051;27;19920;-71
2022/01/09 05:04:18;;;;;;;;;;;;;;;;;;5136092;27;20361;-71
2022/01/09 05:06:44;;;;;;;;;;;;;;;;;;5135772;27;19924;-71
2022/01/09 05:09:10;;;;;;;;;;;;;;;;;;5117412;27;19915;-71
2022/01/09 05:11:35;;;;;;;;;;;;;;;;;;5135512;27;20365;-71
2022/01/09 05:14:01;;;;;;;;;;;;;;;;;;5135698;27;19915;-71
2022/01/09 05:16:26;;;;;;;;;;;;;;;;;;5135310;27;19923;-71
2022/01/09 05:18:54;;;;;;;;;;;;;;;;;;5135765;27;19922;-71
2022/01/09 05:21:20;;;;;;;;;;;;;;;;;;5135347;27;19920;-71
2022/01/09 05:23:45;;;;;;;;;;;;;;;;;;5135348;27;19915;-71
2022/01/09 05:26:10;;;;;;;;;;;;;;;;;;5135164;27;19915;-71
2022/01/09 05:28:36;;;;;;;;;;;;;;;;;;5135732;27;20377;-71
2022/01/09 05:31:01;;;;;;;;;;;;;;;;;;5134487;27;20364;-71
2022/01/09 05:33:26;;;;;;;;;;;;;;;;;;5135413;27;19915;-71
2022/01/09 05:35:52;;;;;;;;;;;;;;;;;;5116632;27;19967;-71
2022/01/09 05:38:18;;;;;;;;;;;;;;;;;;5135236;27;20371;-71
2022/01/09 05:40:44;;;;;;;;;;;;;;;;;;5134989;27;19915;-71
2022/01/09 05:43:09;;;;;;;;;;;;;;;;;;5135264;27;20337;-71
2022/01/09 05:45:35;;;;;;;;;;;;;;;;;;5135131;27;19916;-71
2022/01/09 05:48:01;;;;;;;;;;;;;;;;;;5134245;27;20006;-71
2022/01/09 05:50:27;;;;;;;;;;;;;;;;;;5134944;27;19919;-71
2022/01/09 05:52:52;;;;;;;;;;;;;;;;;;5099438;27;20264;-71
2022/01/09 05:55:18;;;;;;;;;;;;;;;;;;5135115;27;19926;-71
2022/01/09 05:57:43;;;;;;;;;;;;;;;;;;5134997;27;19922;-71
2022/01/09 06:00:08;;;;;;;;;;;;;;;;;;5134892;27;19922;-71
2022/01/09 06:02:44;;;;;;;;;;;;;;;;;;5134441;27;20332;-71
2022/01/09 06:05:09;;;;;;;;;;;;;;;;;;5134692;27;19920;-71
2022/01/09 06:07:38;;;;;;;;;;;;;;;;;;5134591;27;19915;-72
2022/01/09 06:10:04;;;;;;;;;;;;;;;;;;5134226;27;19931;-72
2022/01/09 06:12:30;;;;;;;;;;;;;;;;;;5134648;27;20276;-72
2022/01/09 06:14:55;;;;;;;;;;;;;;;;;;5134891;27;19923;-71
2022/01/09 06:17:20;;;;;;;;;;;;;;;;;;5116367;28;19916;-72
2022/01/09 06:19:46;;;;;;;;;;;;;;;;;;5116352;28;19916;-72
2022/01/09 06:22:17;;;;;;;;;;;;;;;;;;5134691;28;20035;-71
2022/01/09 06:24:43;;;;;;;;;;;;;;;;;;5134478;28;19919;-72
2022/01/09 06:27:08;;;;;;;;;;;;;;;;;;5134680;27;20093;-72
2022/01/09 06:29:34;;;;;;;;;;;;;;;;;;5134700;28;19923;-72
2022/01/09 06:31:59;;;;;;;;;;;;;;;;;;5134711;28;19970;-71
2022/01/09 06:34:24;;;;;;;;;;;;;;;;;;5134480;28;19922;-72
2022/01/09 06:36:50;;;;;;;;;;;;;;;;;;5134051;27;19916;-71
2022/01/09 06:39:15;;;;;;;;;;;;;;;;;;5134230;28;19962;-72
2022/01/09 06:41:40;;;;;;;;;;;;;;;;;;5134384;28;19941;-71
2022/01/09 06:44:06;;;;;;;;;;;;;;;;;;5134748;28;19915;-71
2022/01/09 06:46:31;;;;;;;;;;;;;;;;;;5134224;27;19915;-71
2022/01/09 06:48:56;;;;;;;;;;;;;;;;;;5134367;28;20289;-72
2022/01/09 06:51:21;;;;;;;;;;;;;;;;;;5134241;28;20053;-72
2022/01/09 06:53:47;;;;;;;;;;;;;;;;;;5134444;28;19920;-72
2022/01/09 06:56:12;;;;;;;;;;;;;;;;;;5134214;28;19915;-72
2022/01/09 06:58:37;;;;;;;;;;;;;;;;;;5116035;28;19920;-71
2022/01/09 07:01:04;;;;;;;;;;;;;;;;;;5134199;28;19915;-72
2022/01/09 07:03:29;;;;;;;;;;;;;;;;;;5134346;28;20330;-72
2022/01/09 07:05:54;;;;;;;;;;;;;;;;;;5134133;28;19920;-71
2022/01/09 07:08:20;;;;;;;;;;;;;;;;;;5134571;27;20016;-72
2022/01/09 07:10:45;;;;;;;;;;;;;;;;;;5134109;28;19926;-72
2022/01/09 07:13:11;;;;;;;;;;;;;;;;;;5134139;28;19915;-72
2022/01/09 07:15:36;;;;;;;;;;;;;;;;;;5115294;28;19968;-71
2022/01/09 07:18:01;;;;;;;;;;;;;;;;;;5134096;27;19911;-71
2022/01/09 07:20:27;;;;;;;;;;;;;;;;;;5117462;27;19915;-71
2022/01/09 07:22:52;;;;;;;;;;;;;;;;;;5137792;27;19926;-72
2022/01/09 07:25:17;;;;;;;;;;;;;;;;;;5137583;27;20421;-73
2022/01/09 07:27:43;;;;;;;;;;;;;;;;;;5137921;27;20376;-72
2022/01/09 07:30:08;;;;;;;;;;;;;;;;;;5137363;27;20075;-73
2022/01/09 07:32:36;;;;;;;;;;;;;;;;;;5137657;27;19920;-72
2022/01/09 07:35:02;;;;;;;;;;;;;;;;;;5137726;27;19919;-71
2022/01/09 07:37:30;;;;;;;;;;;;;;;;;;5137588;27;19919;-72
2022/01/09 07:39:56;;;;;;;;;;;;;;;;;;5137831;27;19916;-72
2022/01/09 07:42:21;;;;;;;;;;;;;;;;;;5137384;27;20369;-71
2022/01/09 07:44:46;;;;;;;;;;;;;;;;;;5137539;27;19959;-73
2022/01/09 07:47:12;;;;;;;;;;;;;;;;;;5131171;27;19920;-73
2022/01/09 07:49:37;;;;;;;;;;;;;;;;;;5116160;28;19980;-72
2022/01/09 07:52:02;;;;;;;;;;;;;;;;;;5116625;28;20296;-72
2022/01/09 07:54:28;;;;;;;;;;;;;;;;;;5097919;28;19943;-73
2022/01/09 07:56:53;;;;;;;;;;;;;;;;;;5116771;28;19954;-73
2022/01/09 07:59:18;;;;;;;;;;;;;;;;;;5116435;28;20395;-73
2022/01/09 08:01:43;;;;;;;;;;;;;;;;;;5132414;27;19915;-73
2022/01/09 08:04:08;;;;;;;;;;;;;;;;;;5137101;27;19969;-73
2022/01/09 08:06:34;;;;;;;;;;;;;;;;;;5136713;27;20417;-73
2022/01/09 08:08:59;;;;;;;;;;;;;;;;;;5137176;27;19922;-72
2022/01/09 08:11:25;;;;;;;;;;;;;;;;;;5118638;27;19919;-72
2022/01/09 08:13:50;;;;;;;;;;;;;;;;;;5136875;27;20476;-73
2022/01/09 08:16:15;;;;;;;;;;;;;;;;;;5118401;27;19947;-73
2022/01/09 08:18:41;;;;;;;;;;;;;;;;;;5118367;27;20399;-74
2022/01/09 08:21:06;;;;;;;;;;;;;;;;;;5136569;27;19915;-73
2022/01/09 08:23:31;;;;;;;;;;;;;;;;;;5136829;27;19919;-73
2022/01/09 08:25:57;;;;;;;;;;;;;;;;;;5136691;27;19922;-74
2022/01/09 08:28:22;;;;;;;;;;;;;;;;;;5136690;27;19915;-74
2022/01/09 08:30:47;;;;;;;;;;;;;;;;;;5135904;27;20014;-74
2022/01/09 08:33:12;;;;;;;;;;;;;;;;;;5135864;27;19958;-74
2022/01/09 08:35:38;;;;;;;;;;;;;;;;;;5136140;27;19919;-72
2022/01/09 08:38:05;;;;;;;;;;;;;;;;;;5117966;27;19915;-71
2022/01/09 08:40:32;;;;;;;;;;;;;;;;;;5101188;27;20014;-70
2022/01/09 08:42:57;;;;;;;;;;;;;;;;;;5136017;27;20015;-72
2022/01/09 08:45:23;;;;;;;;;;;;;;;;;;5136434;27;19915;-72
2022/01/09 08:47:49;;;;;;;;;;;;;;;;;;5136138;27;19980;-72
2022/01/09 08:50:15;;;;;;;;;;;;;;;;;;5136075;27;20014;-73
2022/01/09 08:52:40;;;;;;;;;;;;;;;;;;5135924;27;19916;-71
2022/01/09 08:55:06;;;;;;;;;;;;;;;;;;5135796;27;19937;-71
2022/01/09 08:57:31;;;;;;;;;;;;;;;;;;5135721;27;19916;-72
2022/01/09 08:59:57;;;;;;;;;;;;;;;;;;5135388;27;19983;-73
2022/01/09 09:02:22;;;;;;;;;;;;;;;;;;5135713;27;19911;-71
2022/01/09 09:04:47;;;;;;;;;;;;;;;;;;5135854;27;19919;-70
2022/01/09 09:07:14;;;;;;;;;;;;;;;;;;5135803;27;20369;-71
2022/01/09 09:09:40;;;;;;;;;;;;;;;;;;5135784;27;20005;-71
2022/01/09 09:12:05;;;;;;;;;;;;;;;;;;5135958;27;20023;-71
2022/01/09 09:14:30;;;;;;;;;;;;;;;;;;5135863;27;19919;-72
2022/01/09 09:16:56;;;;;;;;;;;;;;;;;;5135697;27;19962;-72
2022/01/09 09:19:21;;;;;;;;;;;;;;;;;;5135604;27;20346;-72
2022/01/09 09:21:47;;;;;;;;;;;;;;;;;;5135786;27;19968;-72
2022/01/09 09:24:13;;;;;;;;;;;;;;;;;;5135557;27;19922;-71
2022/01/09 09:26:38;;;;;;;;;;;;;;;;;;5135395;27;20002;-72
2022/01/09 09:29:05;;;;;;;;;;;;;;;;;;5135531;27;20368;-73
2022/01/09 09:31:30;;;;;;;;;;;;;;;;;;5116988;27;19926;-73
2022/01/09 09:33:56;;;;;;;;;;;;;;;;;;5135251;27;19915;-73
2022/01/09 09:36:23;;;;;;;;;;;;;;;;;;5135409;27;20380;-72
2022/01/09 09:38:48;;;;;;;;;;;;;;;;;;5135414;27;19965;-73
2022/01/09 09:41:13;;;;;;;;;;;;;;;;;;5135383;27;19915;-73
2022/01/09 09:43:38;;;;;;;;;;;;;;;;;;5133705;27;20330;-73
2022/01/09 09:46:04;;;;;;;;;;;;;;;;;;5134893;27;19922;-73
2022/01/09 09:48:29;;;;;;;;;;;;;;;;;;5134335;27;19926;-73
2022/01/09 09:50:55;;;;;;;;;;;;;;;;;;5134999;27;20002;-73
2022/01/09 09:53:21;;;;;;;;;;;;;;;;;;5135097;27;19923;-73
2022/01/09 09:55:48;;;;;;;;;;;;;;;;;;5134931;27;20369;-73
2022/01/09 09:58:15;;;;;;;;;;;;;;;;;;5099564;27;19915;-74
2022/01/09 10:00:41;;;;;;;;;;;;;;;;;;5134811;27;19919;-73
2022/01/09 10:03:07;;;;;;;;;;;;;;;;;;5134797;27;19923;-72
2022/01/09 10:05:34;;;;;;;;;;;;;;;;;;5116535;27;19922;-73
2022/01/09 10:08:05;;;;;;;;;;;;;;;;;;5134741;27;19915;-73
2022/01/09 10:10:32;;;;;;;;;;;;;;;;;;5134596;27;20361;-72
2022/01/09 10:13:05;;;;;;;;;;;;;;;;;;5134729;27;20337;-72
2022/01/09 10:15:30;;;;;;;;;;;;;;;;;;5134467;27;20026;-72
2022/01/09 10:17:55;;;;;;;;;;;;;;;;;;5134520;27;20375;-72
2022/01/09 10:20:24;;;;;;;;;;;;;;;;;;5134674;27;19915;-73
2022/01/09 10:22:51;;;;;;;;;;;;;;;;;;5134596;28;19915;-74
2022/01/09 10:25:43;;;;;;;;;;;;;;;;;;5133409;28;20002;-72
2022/01/09 10:28:12;;;;;;;;;;;;;;;;;;5119215;28;19920;-71
2022/01/09 10:30:39;;;;;;;;;;;;;;;;;;5123840;28;19975;-71
2022/01/09 10:33:14;;;;;;;;;;;;;;;;;;5124028;28;19928;-71
2022/01/09 10:35:41;;;;;;;;;;;;;;;;;;5122873;28;19922;-71
2022/01/09 10:38:06;;;;;;;;;;;;;;;;;;5125436;28;20020;-71
2022/01/09 10:40:34;;;;;;;;;;;;;;;;;;5122969;28;19962;-71
2022/01/09 10:43:01;;;;;;;;;;;;;;;;;;5106814;28;19916;-72
2022/01/09 10:45:26;;;;;;;;;;;;;;;;;;5123516;28;19916;-72
2022/01/09 10:47:55;;;;;;;;;;;;;;;;;;5105052;28;19931;-72
2022/01/09 10:50:40;;;;;;;;;;;;;;;;;;5102838;28;19921;-72
2022/01/09 10:53:18;;;;;;;;;;;;;;;;;;5103676;28;19916;-72
2022/01/09 10:55:48;;;;;;;;;;;;;;;;;;5104398;28;19916;-72
2022/01/09 10:58:21;;;;;;;;;;;;;;;;;;5105905;28;19952;-72
2022/01/09 11:00:47;;;;;;;;;;;;;;;;;;5106334;28;20369;-72
2022/01/09 11:03:12;;;;;;;;;;;;;;;;;;5109535;28;19924;-71
2022/01/09 11:05:38;;;;;;;;;;;;;;;;;;5109165;28;19972;-71
2022/01/09 11:08:04;;;;;;;;;;;;;;;;;;5112754;28;20288;-71
2022/01/09 11:10:30;;;;;;;;;;;;;;;;;;5107829;28;19924;-71
2022/01/09 11:12:59;;;;;;;;;;;;;;;;;;5105948;28;19916;-71
2022/01/09 11:15:28;;;;;;;;;;;;;;;;;;5106524;28;19920;-71
2022/01/09 11:17:56;;;;;;;;;;;;;;;;;;5107763;28;19915;-71
2022/01/09 11:20:21;;;;;;;;;;;;;;;;;;5106343;28;19916;-71
2022/01/09 11:22:47;;;;;;;;;;;;;;;;;;5106334;28;20343;-71
2022/01/09 11:25:13;;;;;;;;;;;;;;;;;;5107946;28;19916;-71
2022/01/09 11:27:46;;;;;;;;;;;;;;;;;;5114888;28;19923;-71
2022/01/09 11:30:14;;;;;;;;;;;;;;;;;;5117295;28;19920;-71
2022/01/09 11:32:58;;;;;;;;;;;;;;;;;;5116509;28;19915;-71
2022/01/09 11:35:29;;;;;;;;;;;;;;;;;;5117055;28;19960;-71
2022/01/09 11:38:01;;;;;;;;;;;;;;;;;;5115874;28;19923;-71
2022/01/09 11:40:28;;;;;;;;;;;;;;;;;;5117128;28;19957;-71
2022/01/09 11:43:05;;;;;;;;;;;;;;;;;;5116689;28;19912;-71
2022/01/09 11:45:44;;;;;;;;;;;;;;;;;;5116769;28;19919;-70
2022/01/09 11:48:11;;;;;;;;;;;;;;;;;;5130403;27;19927;-70
2022/01/09 11:50:42;;;;;;;;;;;;;;;;;;5137352;27;19919;-70
2022/01/09 11:53:07;;;;;;;;;;;;;;;;;;5137038;27;19923;-71
2022/01/09 11:55:41;;;;;;;;;;;;;;;;;;5137046;27;19915;-71
2022/01/09 11:58:09;;;;;;;;;;;;;;;;;;5137177;27;20257;-71
2022/01/09 12:00:36;;;;;;;;;;;;;;;;;;5137180;27;19959;-71
2022/01/09 12:03:20;;;;;;;;;;;;;;;;;;5136520;27;19916;-73
2022/01/09 12:05:58;;;;;;;;;;;;;;;;;;5136720;27;19915;-73
2022/01/09 12:08:24;;;;;;;;;;;;;;;;;;5136598;27;19920;-73
2022/01/09 12:10:50;;;;;;;;;;;;;;;;;;5136778;27;19920;-73
2022/01/09 12:13:36;;;;;;;;;;;;;;;;;;5126635;27;20459;-72
2022/01/09 12:16:01;;;;;;;;;;;;;;;;;;5126878;27;20002;-72
2022/01/09 12:18:42;;;;;;;;;;;;;;;;;;5125101;27;20011;-73
2022/01/09 12:21:08;;;;;;;;;;;;;;;;;;5125183;27;19916;-72
2022/01/09 12:23:33;;;;;;;;;;;;;;;;;;5126552;27;19916;-72
2022/01/09 12:25:59;;;;;;;;;;;;;;;;;;5126391;27;20312;-73
2022/01/09 12:28:25;;;;;;;;;;;;;;;;;;5127665;27;20288;-74
2022/01/09 12:31:00;;;;;;;;;;;;;;;;;;5125505;27;19926;-73
2022/01/09 12:33:26;;;;;;;;;;;;;;;;;;5127474;27;19915;-75
2022/01/09 12:35:55;;;;;;;;;;;;;;;;;;5124881;27;19950;-73
2022/01/09 12:38:21;;;;;;;;;;;;;;;;;;5136581;27;19959;-72
2022/01/09 12:40:47;;;;;;;;;;;;;;;;;;5136075;27;19915;-73
2022/01/09 12:43:14;;;;;;;;;;;;;;;;;;5136316;27;20030;-73
2022/01/09 12:45:43;;;;;;;;;;;;;;;;;;5136236;27;19922;-73
2022/01/09 12:48:15;;;;;;;;;;;;;;;;;;5136031;27;19924;-74
2022/01/09 12:50:41;;;;;;;;;;;;;;;;;;5136162;27;19920;-76
2022/01/09 12:53:17;;;;;;;;;;;;;;;;;;5117848;27;19915;-76
2022/01/09 12:55:54;;;;;;;;;;;;;;;;;;5135906;27;20005;-77
2022/01/09 12:58:23;;;;;;;;;;;;;;;;;;5135939;27;19955;-76
2022/01/09 13:00:48;;;;;;;;;;;;;;;;;;5117669;27;19919;-77
2022/01/09 13:03:16;;;;;;;;;;;;;;;;;;5116764;27;19916;-76
2022/01/09 13:05:50;;;;;;;;;;;;;;;;;;5135513;27;20075;-76
2022/01/09 13:08:17;;;;;;;;;;;;;;;;;;5135920;27;20009;-75
2022/01/09 13:10:42;;;;;;;;;;;;;;;;;;5135715;27;19926;-73
2022/01/09 13:13:10;;;;;;;;;;;;;;;;;;5135758;27;20292;-74
2022/01/09 13:15:36;;;;;;;;;;;;;;;;;;5135784;27;19923;-73
2022/01/09 13:18:02;;;;;;;;;;;;;;;;;;5134796;27;19916;-74
2022/01/09 13:20:28;;;;;;;;;;;;;;;;;;5117174;27;19922;-73
2022/01/09 13:23:02;;;;;;;;;;;;;;;;;;5116461;27;19915;-73
2022/01/09 13:25:28;;;;;;;;;;;;;;;;;;5135670;27;19915;-73
2022/01/09 13:27:53;;;;;;;;;;;;;;;;;;5135486;27;19922;-73
2022/01/09 13:30:20;;;;;;;;;;;;;;;;;;5134848;27;20388;-73
2022/01/09 13:32:45;;;;;;;;;;;;;;;;;;5116964;27;19961;-73
2022/01/09 13:35:11;;;;;;;;;;;;;;;;;;5135412;27;19950;-73
2022/01/09 13:37:36;;;;;;;;;;;;;;;;;;5134526;27;20472;-73
2022/01/09 13:40:03;;;;;;;;;;;;;;;;;;5135335;27;19919;-73
2022/01/09 13:42:30;;;;;;;;;;;;;;;;;;5134728;27;19938;-73
2022/01/09 13:45:02;;;;;;;;;;;;;;;;;;5134044;27;20399;-74
2022/01/09 13:47:27;;;;;;;;;;;;;;;;;;5124243;27;20385;-73
2022/01/09 13:49:53;;;;;;;;;;;;;;;;;;5126760;27;19915;-73
2022/01/09 13:52:19;;;;;;;;;;;;;;;;;;5124956;27;19919;-73
2022/01/09 13:54:57;;;;;;;;;;;;;;;;;;5130143;27;20459;-73
2022/01/09 13:57:25;;;;;;;;;;;;;;;;;;5115640;27;20373;-74
2022/01/09 13:59:51;;;;;;;;;;;;;;;;;;5116512;27;19916;-73
2022/01/09 14:02:18;;;;;;;;;;;;;;;;;;5130659;27;19922;-73
2022/01/09 14:04:43;;;;;;;;;;;;;;;;;;5106458;27;19921;-73
2022/01/09 14:07:18;;;;;;;;;;;;;;;;;;5125966;27;20365;-73
2022/01/09 14:09:45;;;;;;;;;;;;;;;;;;5119196;28;19916;-73
2022/01/09 14:12:14;;;;;;;;;;;;;;;;;;5132868;27;19915;-73
2022/01/09 14:14:42;;;;;;;;;;;;;;;;;;5134568;27;20273;-73
2022/01/09 14:17:29;;;;;;;;;;;;;;;;;;5117683;27;20430;-73
2022/01/09 14:19:56;;;;;;;;;;;;;;;;;;5131574;27;19970;-74
2022/01/09 14:22:33;;;;;;;;;;;;;;;;;;5105631;28;19916;-73
2022/01/09 14:25:03;;;;;;;;;;;;;;;;;;5123266;28;20325;-73
2022/01/09 14:27:30;;;;;;;;;;;;;;;;;;5112793;28;20391;-73
2022/01/09 14:29:56;;;;;;;;;;;;;;;;;;5124917;27;20376;-73
2022/01/09 14:32:21;;;;;;;;;;;;;;;;;;5095616;27;19923;-73
2022/01/09 14:34:47;;;;;;;;;;;;;;;;;;5135460;27;19923;-73
2022/01/09 14:37:12;;;;;;;;;;;;;;;;;;5110219;27;19930;-73
2022/01/09 14:39:38;;;;;;;;;;;;;;;;;;5134550;27;19923;-73
2022/01/09 14:42:06;;;;;;;;;;;;;;;;;;5129405;27;19946;-73
2022/01/09 14:44:32;;;;;;;;;;;;;;;;;;5130992;27;19922;-73
2022/01/09 14:46:57;;;;;;;;;;;;;;;;;;5135010;27;19919;-73
2022/01/09 14:49:23;;;;;;;;;;;;;;;;;;5138457;27;19922;-73
2022/01/09 14:51:50;;;;;;;;;;;;;;;;;;5125385;27;19946;-73
2022/01/09 14:54:16;;;;;;;;;;;;;;;;;;5129325;27;19916;-73
2022/01/09 14:56:41;;;;;;;;;;;;;;;;;;5111070;27;20042;-73
2022/01/09 14:59:06;;;;;;;;;;;;;;;;;;5138122;27;20571;-73
2022/01/09 15:01:31;;;;;;;;;;;;;;;;;;5120341;27;20322;-73
2022/01/09 15:03:57;;;;;;;;;;;;;;;;;;5137732;27;19919;-73
2022/01/09 15:06:23;;;;;;;;;;;;;;;;;;5132500;27;19953;-73
2022/01/09 15:08:48;;;;;;;;;;;;;;;;;;5127452;27;19955;-73
2022/01/09 15:11:14;;;;;;;;;;;;;;;;;;5136041;27;19969;-73
2022/01/09 15:13:39;;;;;;;;;;;;;;;;;;5122554;27;19922;-73
2022/01/09 15:16:05;;;;;;;;;;;;;;;;;;5112360;27;19915;-73
2022/01/09 15:18:30;;;;;;;;;;;;;;;;;;5137788;27;19915;-73
2022/01/09 15:20:56;;;;;;;;;;;;;;;;;;5124351;27;19916;-73
2022/01/09 15:23:21;;;;;;;;;;;;;;;;;;5109226;27;19948;-73
2022/01/09 15:25:47;;;;;;;;;;;;;;;;;;5119790;27;19957;-73
2022/01/09 15:28:13;;;;;;;;;;;;;;;;;;5137024;27;19922;-73
2022/01/09 15:30:42;;;;;;;;;;;;;;;;;;5137985;27;20284;-73
2022/01/09 15:33:07;;;;;;;;;;;;;;;;;;5137183;27;19915;-73
2022/01/09 15:35:33;;;;;;;;;;;;;;;;;;5137832;27;20368;-73
2022/01/09 15:37:58;;;;;;;;;;;;;;;;;;5118442;27;20034;-73
2022/01/09 15:40:24;;;;;;;;;;;;;;;;;;5137594;27;19915;-73
2022/01/09 15:42:50;;;;;;;;;;;;;;;;;;5137521;27;20392;-73
2022/01/09 15:45:15;;;;;;;;;;;;;;;;;;5136072;27;20369;-73
2022/01/09 15:47:41;;;;;;;;;;;;;;;;;;5125182;27;20276;-73
2022/01/09 15:50:06;;;;;;;;;;;;;;;;;;5135382;27;19919;-73
2022/01/09 15:52:32;;;;;;;;;;;;;;;;;;5136946;27;19935;-73
2022/01/09 15:54:57;;;;;;;;;;;;;;;;;;5136431;27;19922;-73
2022/01/09 15:57:23;;;;;;;;;;;;;;;;;;5136999;27;19911;-73
2022/01/09 15:59:49;;;;;;;;;;;;;;;;;;5137266;27;19923;-73
2022/01/09 16:02:14;;;;;;;;;;;;;;;;;;5136146;27;20534;-73
2022/01/09 16:04:39;;;;;;;;;;;;;;;;;;5135943;27;19922;-73
2022/01/09 16:07:04;;;;;;;;;;;;;;;;;;5136453;27;19915;-73
2022/01/09 16:09:30;;;;;;;;;;;;;;;;;;5137007;27;19916;-73
2022/01/09 16:11:58;;;;;;;;;;;;;;;;;;5118279;27;19928;-73
2022/01/09 16:14:24;;;;;;;;;;;;;;;;;;5117332;27;20004;-73
2022/01/09 16:16:51;;;;;;;;;;;;;;;;;;5118417;27;20376;-73
2022/01/09 16:19:16;;;;;;;;;;;;;;;;;;5135087;27;19922;-73
2022/01/09 16:21:42;;;;;;;;;;;;;;;;;;5112570;27;19916;-73
2022/01/09 16:24:07;;;;;;;;;;;;;;;;;;5117601;27;20010;-73
2022/01/09 16:26:32;;;;;;;;;;;;;;;;;;5135952;27;19915;-73
2022/01/09 16:28:58;;;;;;;;;;;;;;;;;;5135943;27;20296;-72
2022/01/09 16:31:23;;;;;;;;;;;;;;;;;;5136041;27;19919;-73
2022/01/09 16:33:50;;;;;;;;;;;;;;;;;;5136638;27;20407;-73
2022/01/09 16:36:18;;;;;;;;;;;;;;;;;;5135648;27;20361;-73
2022/01/09 16:38:43;;;;;;;;;;;;;;;;;;5136198;27;20023;-73
2022/01/09 16:41:09;;;;;;;;;;;;;;;;;;5136392;27;20056;-73
2022/01/09 16:43:34;;;;;;;;;;;;;;;;;;5128658;27;19915;-73